Time,TemperatureF,DewpointF,PressureIn,WindDirection,WindDirectionDegrees,WindSpeedMPH,WindSpeedGustMPH,Humidity,HourlyPrecipIn,Conditions,Clouds,dailyrainin,SoftwareType,DateUTC
2013-09-13 00:02:00,66.6,64.8,29.94,WSW,240,0.0,0.0,94,0.00,,,0.00,Wunderground v.1.15,2013-09-13 04:02:00,
2013-09-13 00:04:00,66.6,64.8,29.94,SW,232,0.0,1.0,94,0.00,,,0.00,Wunderground v.1.15,2013-09-13 04:04:00,
2013-09-13 00:06:00,66.5,64.7,29.93,SW,232,0.0,1.0,94,0.00,,,0.00,Wunderground v.1.15,2013-09-13 04:06:00,
2013-09-13 00:08:00,66.5,64.7,29.93,SW,232,0.0,1.0,94,0.00,,,0.00,Wunderground v.1.15,2013-09-13 04:08:00,
2013-09-13 00:14:00,66.4,64.6,29.93,SW,229,0.0,0.0,94,0.00,,,0.00,Wunderground v.1.15,2013-09-13 04:14:00,
2013-09-13 00:20:00,66.3,64.5,29.93,SSW,200,0.0,1.0,94,0.00,,,0.00,Wunderground v.1.15,2013-09-13 04:20:00,
2013-09-13 00:26:00,66.3,64.8,29.93,SSW,208,1.0,1.0,95,0.00,,,0.00,Wunderground v.1.15,2013-09-13 04:26:00,
2013-09-13 00:32:00,66.2,64.7,29.93,SSW,208,0.0,0.0,95,0.00,,,0.00,Wunderground v.1.15,2013-09-13 04:32:00,
2013-09-13 00:38:00,66.0,64.5,29.93,SW,214,0.0,1.0,95,0.00,,,0.00,Wunderground v.1.15,2013-09-13 04:38:00,
2013-09-13 00:44:00,65.9,64.4,29.92,SW,214,0.0,1.0,95,0.00,,,0.00,Wunderground v.1.15,2013-09-13 04:44:00,
2013-09-13 00:50:00,65.8,64.3,29.93,SW,214,1.0,2.0,95,0.00,,,0.00,Wunderground v.1.15,2013-09-13 04:50:00,
2013-09-13 00:56:00,65.8,64.3,29.93,SSW,211,2.0,2.0,95,0.00,,,0.00,Wunderground v.1.15,2013-09-13 04:56:00,
2013-09-13 01:02:00,65.8,64.3,29.92,SSW,205,1.0,3.0,95,0.00,,,0.00,Wunderground v.1.15,2013-09-13 05:02:00,
2013-09-13 01:08:00,65.7,64.5,29.92,SSW,203,0.0,3.0,96,0.00,,,0.00,Wunderground v.1.15,2013-09-13 05:08:00,
2013-09-13 01:14:00,65.8,64.6,29.92,SSW,201,1.0,3.0,96,0.00,,,0.00,Wunderground v.1.15,2013-09-13 05:14:00,
2013-09-13 01:20:00,65.7,64.5,29.92,SSW,211,2.0,2.0,96,0.00,,,0.00,Wunderground v.1.15,2013-09-13 05:20:00,
2013-09-13 01:26:00,65.7,64.2,29.92,SSW,195,1.0,3.0,95,0.00,,,0.00,Wunderground v.1.15,2013-09-13 05:26:00,
2013-09-13 01:32:00,65.7,64.2,29.92,SSW,195,1.0,3.0,95,0.00,,,0.00,Wunderground v.1.15,2013-09-13 05:32:00,
2013-09-13 01:38:00,65.8,64.3,29.92,SW,214,1.0,3.0,95,0.00,,,0.00,Wunderground v.1.15,2013-09-13 05:38:00,
2013-09-13 01:44:00,65.8,64.3,29.92,SSW,212,1.0,3.0,95,0.00,,,0.00,Wunderground v.1.15,2013-09-13 05:44:00,
2013-09-13 01:50:00,65.8,64.3,29.92,SSW,205,1.0,1.0,95,0.00,,,0.00,Wunderground v.1.15,2013-09-13 05:50:00,
2013-09-13 01:56:00,65.7,64.2,29.91,SSW,204,0.0,3.0,95,0.00,,,0.00,Wunderground v.1.15,2013-09-13 05:56:00,
2013-09-13 02:02:00,65.7,64.2,29.91,SSW,208,0.0,3.0,95,0.00,,,0.00,Wunderground v.1.15,2013-09-13 06:02:00,
2013-09-13 02:08:00,65.6,64.1,29.91,SSW,208,2.0,3.0,95,0.00,,,0.00,Wunderground v.1.15,2013-09-13 06:08:00,
2013-09-13 02:14:00,65.5,64.0,29.91,SSW,203,2.0,3.0,95,0.00,,,0.00,Wunderground v.1.15,2013-09-13 06:14:00,
2013-09-13 02:20:00,65.5,64.0,29.91,SSW,208,2.0,3.0,95,0.00,,,0.00,Wunderground v.1.15,2013-09-13 06:20:00,
2013-09-13 02:26:00,65.5,64.0,29.91,SSW,207,2.0,3.0,95,0.00,,,0.00,Wunderground v.1.15,2013-09-13 06:26:00,
2013-09-13 02:32:00,65.4,63.9,29.91,SSW,210,3.0,3.0,95,0.00,,,0.00,Wunderground v.1.15,2013-09-13 06:32:00,
2013-09-13 02:38:00,65.4,64.2,29.90,SSW,208,2.0,3.0,96,0.00,,,0.00,Wunderground v.1.15,2013-09-13 06:38:00,
2013-09-13 02:44:00,65.4,64.2,29.90,SW,219,2.0,3.0,96,0.00,,,0.00,Wunderground v.1.15,2013-09-13 06:44:00,
2013-09-13 02:50:00,65.3,63.8,29.90,SW,215,2.0,3.0,95,0.00,,,0.00,Wunderground v.1.15,2013-09-13 06:50:00,
2013-09-13 02:56:00,65.2,63.7,29.90,SSW,211,2.0,3.0,95,0.00,,,0.00,Wunderground v.1.15,2013-09-13 06:56:00,
2013-09-13 03:02:00,65.1,63.6,29.90,SSW,208,2.0,3.0,95,0.00,,,0.00,Wunderground v.1.15,2013-09-13 07:02:00,
2013-09-13 03:08:00,64.9,63.4,29.90,SW,217,1.0,3.0,95,0.00,,,0.00,Wunderground v.1.15,2013-09-13 07:08:00,
2013-09-13 03:14:00,64.7,63.2,29.90,West,260,2.0,5.0,95,0.00,,,0.00,Wunderground v.1.15,2013-09-13 07:14:00,
2013-09-13 03:20:00,64.5,63.0,29.90,SW,225,2.0,2.0,95,0.00,,,0.00,Wunderground v.1.15,2013-09-13 07:20:00,
2013-09-13 03:26:00,64.5,63.3,29.90,WSW,241,2.0,4.0,96,0.00,,,0.00,Wunderground v.1.15,2013-09-13 07:26:00,
2013-09-13 03:32:00,64.6,63.4,29.90,SW,232,3.0,5.0,96,0.00,,,0.00,Wunderground v.1.15,2013-09-13 07:32:00,
2013-09-13 03:38:00,64.7,63.5,29.91,SW,217,4.0,5.0,96,0.00,,,0.00,Wunderground v.1.15,2013-09-13 07:38:00,
2013-09-13 03:44:00,65.0,63.8,29.91,SW,229,3.0,4.0,96,0.00,,,0.00,Wunderground v.1.15,2013-09-13 07:44:00,
2013-09-13 03:50:00,65.1,63.9,29.91,SSW,211,3.0,3.0,96,0.00,,,0.00,Wunderground v.1.15,2013-09-13 07:50:00,
2013-09-13 03:56:00,65.3,63.8,29.90,South,191,3.0,3.0,95,0.00,,,0.00,Wunderground v.1.15,2013-09-13 07:56:00,
2013-09-13 04:02:00,65.2,63.7,29.90,South,176,2.0,3.0,95,0.00,,,0.00,Wunderground v.1.15,2013-09-13 08:02:00,
2013-09-13 04:08:00,65.1,63.6,29.90,South,179,1.0,3.0,95,0.00,,,0.00,Wunderground v.1.15,2013-09-13 08:08:00,
2013-09-13 04:14:00,65.3,64.1,29.90,SSE,165,1.0,3.0,96,0.00,,,0.00,Wunderground v.1.15,2013-09-13 08:14:00,
2013-09-13 04:20:00,65.5,64.3,29.90,SSE,155,1.0,1.0,96,0.00,,,0.00,Wunderground v.1.15,2013-09-13 08:20:00,
2013-09-13 04:26:00,65.2,63.7,29.90,SSE,162,1.0,3.0,95,0.00,,,0.00,Wunderground v.1.15,2013-09-13 08:26:00,
2013-09-13 04:32:00,65.0,63.5,29.90,SSW,201,1.0,3.0,95,0.00,,,0.01,Wunderground v.1.15,2013-09-13 08:32:00,
2013-09-13 04:38:00,64.9,63.7,29.90,South,179,1.0,3.0,96,0.00,,,0.01,Wunderground v.1.15,2013-09-13 08:38:00,
2013-09-13 04:44:00,64.7,63.5,29.90,South,188,2.0,3.0,96,0.00,,,0.01,Wunderground v.1.15,2013-09-13 08:44:00,
2013-09-13 04:50:00,64.4,62.9,29.90,SSW,193,2.0,2.0,95,0.00,,,0.01,Wunderground v.1.15,2013-09-13 08:50:00,
2013-09-13 04:56:00,63.9,62.4,29.90,SSW,199,2.0,3.0,95,0.00,,,0.01,Wunderground v.1.15,2013-09-13 08:56:00,
2013-09-13 05:02:00,63.7,62.5,29.90,SSW,197,2.0,3.0,96,0.00,,,0.01,Wunderground v.1.15,2013-09-13 09:02:00,
2013-09-13 05:08:00,63.7,62.5,29.90,SSW,205,2.0,3.0,96,0.00,,,0.01,Wunderground v.1.15,2013-09-13 09:08:00,
2013-09-13 05:14:00,63.6,62.4,29.90,SSW,203,2.0,3.0,96,0.00,,,0.01,Wunderground v.1.15,2013-09-13 09:14:00,
2013-09-13 05:20:00,63.7,62.8,29.91,SSW,211,3.0,3.0,97,0.00,,,0.01,Wunderground v.1.15,2013-09-13 09:20:00,
2013-09-13 05:26:00,63.8,62.9,29.90,SW,218,2.0,3.0,97,0.00,,,0.01,Wunderground v.1.15,2013-09-13 09:26:00,
2013-09-13 05:32:00,63.7,62.8,29.91,SW,219,2.0,3.0,97,0.00,,,0.01,Wunderground v.1.15,2013-09-13 09:32:00,
2013-09-13 05:38:00,63.9,63.0,29.91,SSW,207,2.0,3.0,97,0.00,,,0.01,Wunderground v.1.15,2013-09-13 09:38:00,
2013-09-13 05:44:00,64.0,63.1,29.91,SSW,201,1.0,3.0,97,0.00,,,0.01,Wunderground v.1.15,2013-09-13 09:44:00,
2013-09-13 05:50:00,64.1,63.2,29.91,SSW,208,0.0,3.0,97,0.00,,,0.01,Wunderground v.1.15,2013-09-13 09:50:00,
2013-09-13 05:56:00,64.1,63.2,29.91,SSW,208,0.0,3.0,97,0.00,,,0.01,Wunderground v.1.15,2013-09-13 09:56:00,
2013-09-13 06:02:00,64.2,63.3,29.91,SSW,204,0.0,3.0,97,0.00,,,0.01,Wunderground v.1.15,2013-09-13 10:02:00,
2013-09-13 06:08:00,64.2,63.3,29.91,SSW,208,1.0,3.0,97,0.00,,,0.01,Wunderground v.1.15,2013-09-13 10:08:00,
2013-09-13 06:14:00,64.2,63.3,29.91,SSW,208,1.0,3.0,97,0.00,,,0.01,Wunderground v.1.15,2013-09-13 10:14:00,
2013-09-13 06:20:00,64.1,63.2,29.91,South,188,1.0,3.0,97,0.00,,,0.01,Wunderground v.1.15,2013-09-13 10:20:00,
2013-09-13 06:26:00,63.9,63.0,29.91,South,187,2.0,3.0,97,0.00,,,0.01,Wunderground v.1.15,2013-09-13 10:26:00,
2013-09-13 06:32:00,63.9,63.0,29.91,South,172,2.0,3.0,97,0.00,,,0.01,Wunderground v.1.15,2013-09-13 10:32:00,
2013-09-13 06:38:00,63.7,62.8,29.91,SSW,193,2.0,3.0,97,0.00,,,0.01,Wunderground v.1.15,2013-09-13 10:38:00,
2013-09-13 06:44:00,63.6,62.7,29.91,SSW,211,2.0,3.0,97,0.00,,,0.01,Wunderground v.1.15,2013-09-13 10:44:00,
2013-09-13 06:50:00,63.5,62.6,29.91,SSW,200,2.0,4.0,97,0.00,,,0.01,Wunderground v.1.15,2013-09-13 10:50:00,
2013-09-13 06:56:00,63.5,62.6,29.91,SSW,201,3.0,4.0,97,0.00,,,0.01,Wunderground v.1.15,2013-09-13 10:56:00,
2013-09-13 07:02:00,63.4,62.5,29.91,SSW,201,3.0,3.0,97,0.00,,,0.01,Wunderground v.1.15,2013-09-13 11:02:00,
2013-09-13 07:08:00,63.4,62.5,29.91,SSW,208,3.0,3.0,97,0.00,,,0.01,Wunderground v.1.15,2013-09-13 11:08:00,
2013-09-13 07:14:00,63.4,62.5,29.91,SSW,195,3.0,3.0,97,0.00,,,0.01,Wunderground v.1.15,2013-09-13 11:14:00,
2013-09-13 07:20:00,63.5,62.6,29.92,SSW,205,2.0,2.0,97,0.00,,,0.01,Wunderground v.1.15,2013-09-13 11:20:00,
2013-09-13 07:26:00,63.5,62.6,29.92,SSW,208,2.0,3.0,97,0.00,,,0.01,Wunderground v.1.15,2013-09-13 11:26:00,
2013-09-13 07:32:00,63.8,62.9,29.92,SSW,208,2.0,3.0,97,0.00,,,0.01,Wunderground v.1.15,2013-09-13 11:32:00,
2013-09-13 07:38:00,63.8,62.9,29.92,SSW,205,3.0,5.0,97,0.00,,,0.01,Wunderground v.1.15,2013-09-13 11:38:00,
2013-09-13 07:44:00,64.0,63.1,29.92,SW,225,2.0,3.0,97,0.00,,,0.01,Wunderground v.1.15,2013-09-13 11:44:00,
2013-09-13 07:50:00,64.1,63.2,29.92,SSW,195,1.0,1.0,97,0.00,,,0.01,Wunderground v.1.15,2013-09-13 11:50:00,
2013-09-13 07:56:00,64.3,63.4,29.92,SSE,167,1.0,3.0,97,0.00,,,0.01,Wunderground v.1.15,2013-09-13 11:56:00,
2013-09-13 08:04:00,64.6,63.7,29.92,South,186,2.0,3.0,97,0.00,,,0.01,Wunderground v.1.15,2013-09-13 12:04:00,
2013-09-13 08:10:00,64.9,64.0,29.93,South,183,1.0,3.0,97,0.00,,,0.01,Wunderground v.1.15,2013-09-13 12:10:00,
2013-09-13 08:16:00,65.1,64.2,29.93,SSW,195,1.0,3.0,97,0.00,,,0.01,Wunderground v.1.15,2013-09-13 12:16:00,
2013-09-13 08:22:00,65.1,64.2,29.93,SSW,208,1.0,3.0,97,0.00,,,0.01,Wunderground v.1.15,2013-09-13 12:22:00,
2013-09-13 08:28:00,65.2,64.0,29.93,SSW,208,2.0,3.0,96,0.00,,,0.01,Wunderground v.1.15,2013-09-13 12:28:00,
2013-09-13 08:34:00,65.6,64.4,29.93,SW,232,2.0,4.0,96,0.00,,,0.01,Wunderground v.1.15,2013-09-13 12:34:00,
2013-09-13 08:40:00,66.1,64.3,29.93,SW,225,2.0,3.0,94,0.00,,,0.01,Wunderground v.1.15,2013-09-13 12:40:00,
2013-09-13 08:46:00,66.7,64.3,29.93,West,261,2.0,3.0,92,0.00,,,0.01,Wunderground v.1.15,2013-09-13 12:46:00,
2013-09-13 08:52:00,67.8,65.1,29.92,NW,307,1.0,3.0,91,0.00,,,0.01,Wunderground v.1.15,2013-09-13 12:52:00,
2013-09-13 08:58:00,68.4,64.4,29.92,NNW,328,0.0,3.0,87,0.00,,,0.01,Wunderground v.1.15,2013-09-13 12:58:00,
2013-09-13 09:04:00,68.8,64.4,29.93,NNW,332,1.0,3.0,86,0.00,,,0.01,Wunderground v.1.15,2013-09-13 13:04:00,
2013-09-13 09:10:00,69.0,63.6,29.93,NW,319,3.0,6.0,83,0.00,,,0.01,Wunderground v.1.15,2013-09-13 13:10:00,
2013-09-13 09:16:00,69.1,63.4,29.93,NW,322,4.0,6.0,82,0.00,,,0.01,Wunderground v.1.15,2013-09-13 13:16:00,
2013-09-13 09:22:00,69.6,63.9,29.93,NW,312,4.0,9.0,82,0.00,,,0.01,Wunderground v.1.15,2013-09-13 13:22:00,
2013-09-13 09:28:00,69.7,63.3,29.93,NNW,327,4.0,9.0,80,0.00,,,0.01,Wunderground v.1.15,2013-09-13 13:28:00,
2013-09-13 09:34:00,69.9,63.4,29.93,WNW,287,5.0,5.0,80,0.00,,,0.01,Wunderground v.1.15,2013-09-13 13:34:00,
2013-09-13 09:40:00,70.2,63.0,29.93,SW,225,4.0,5.0,78,0.00,,,0.01,Wunderground v.1.15,2013-09-13 13:40:00,
2013-09-13 09:46:00,70.3,63.1,29.93,WNW,294,5.0,7.0,78,0.00,,,0.01,Wunderground v.1.15,2013-09-13 13:46:00,
2013-09-13 09:52:00,70.6,63.4,29.93,NNW,334,5.0,7.0,78,0.00,,,0.01,Wunderground v.1.15,2013-09-13 13:52:00,
2013-09-13 09:58:00,70.7,62.8,29.93,West,280,5.0,8.0,76,0.00,,,0.01,Wunderground v.1.15,2013-09-13 13:58:00,
2013-09-13 10:04:00,70.8,62.9,29.93,West,259,5.0,6.0,76,0.00,,,0.01,Wunderground v.1.15,2013-09-13 14:04:00,
2013-09-13 10:10:00,71.3,63.0,29.93,NW,321,4.0,4.0,75,0.00,,,0.01,Wunderground v.1.15,2013-09-13 14:10:00,
2013-09-13 10:16:00,71.2,62.1,29.93,NW,321,4.0,8.0,73,0.00,,,0.01,Wunderground v.1.15,2013-09-13 14:16:00,
2013-09-13 10:22:00,71.0,62.3,29.94,WSW,245,4.0,4.0,74,0.00,,,0.01,Wunderground v.1.15,2013-09-13 14:22:00,
2013-09-13 10:28:00,70.6,61.9,29.94,WSW,256,3.0,6.0,74,0.00,,,0.01,Wunderground v.1.15,2013-09-13 14:28:00,
2013-09-13 10:34:00,70.3,62.0,29.94,WSW,248,4.0,8.0,75,0.00,,,0.01,Wunderground v.1.15,2013-09-13 14:34:00,
2013-09-13 10:39:00,70.5,61.8,29.94,NW,307,6.0,10.0,74,0.00,,,0.01,Wunderground v.1.15,2013-09-13 14:39:00,
2013-09-13 10:46:00,70.9,61.4,29.93,WSW,243,6.0,10.0,72,0.00,,,0.01,Wunderground v.1.15,2013-09-13 14:46:00,
2013-09-13 10:51:00,70.7,60.4,29.94,SW,217,6.0,7.0,70,0.00,,,0.01,Wunderground v.1.15,2013-09-13 14:51:00,
2013-09-13 10:58:00,71.1,61.6,29.94,West,277,8.0,11.0,72,0.00,,,0.01,Wunderground v.1.15,2013-09-13 14:58:00,
2013-09-13 11:04:00,71.3,61.0,29.93,WNW,294,9.0,14.0,70,0.00,,,0.01,Wunderground v.1.15,2013-09-13 15:04:00,
2013-09-13 11:10:00,71.8,61.9,29.93,WNW,290,7.0,7.0,71,0.00,,,0.01,Wunderground v.1.15,2013-09-13 15:10:00,
2013-09-13 11:16:00,72.2,60.6,29.94,NW,305,5.0,8.0,67,0.00,,,0.01,Wunderground v.1.15,2013-09-13 15:16:00,
2013-09-13 11:22:00,72.0,61.7,29.94,WSW,246,6.0,6.0,70,0.00,,,0.01,Wunderground v.1.15,2013-09-13 15:22:00,
2013-09-13 11:27:00,71.5,58.7,29.94,WNW,287,5.0,8.0,64,0.00,,,0.01,Wunderground v.1.15,2013-09-13 15:27:00,
2013-09-13 11:34:00,72.3,59.4,29.94,West,272,4.0,7.0,64,0.00,,,0.01,Wunderground v.1.15,2013-09-13 15:34:00,
2013-09-13 11:39:00,72.4,58.2,29.94,WSW,257,7.0,7.0,61,0.00,,,0.01,Wunderground v.1.15,2013-09-13 15:39:00,
2013-09-13 11:46:00,72.2,58.0,29.94,West,267,8.0,9.0,61,0.00,,,0.01,Wunderground v.1.15,2013-09-13 15:46:00,
2013-09-13 11:52:00,72.9,60.0,29.94,WNW,299,4.0,5.0,64,0.00,,,0.01,Wunderground v.1.15,2013-09-13 15:52:00,
2013-09-13 11:58:00,72.9,57.7,29.94,West,281,3.0,8.0,59,0.00,,,0.01,Wunderground v.1.15,2013-09-13 15:58:00,
2013-09-13 12:04:00,72.5,55.9,29.94,NW,311,6.0,9.0,56,0.00,,,0.01,Wunderground v.1.15,2013-09-13 16:04:00,
2013-09-13 12:10:00,73.1,57.4,29.94,SW,225,7.0,8.0,58,0.00,,,0.01,Wunderground v.1.15,2013-09-13 16:10:00,
2013-09-13 12:16:00,73.1,56.0,29.94,WNW,297,8.0,8.0,55,0.00,,,0.01,Wunderground v.1.15,2013-09-13 16:16:00,
2013-09-13 12:22:00,73.1,57.9,29.94,West,273,7.0,11.0,59,0.00,,,0.01,Wunderground v.1.15,2013-09-13 16:22:00,
2013-09-13 12:28:00,73.8,58.1,29.94,West,274,5.0,11.0,58,0.00,,,0.01,Wunderground v.1.15,2013-09-13 16:28:00,
2013-09-13 12:34:00,74.2,57.5,29.94,West,271,4.0,7.0,56,0.00,,,0.01,Wunderground v.1.15,2013-09-13 16:34:00,
2013-09-13 12:40:00,74.7,58.0,29.94,WSW,240,4.0,6.0,56,0.00,,,0.01,Wunderground v.1.15,2013-09-13 16:40:00,
2013-09-13 12:46:00,74.6,56.9,29.93,WNW,297,3.0,6.0,54,0.00,,,0.01,Wunderground v.1.15,2013-09-13 16:46:00,
2013-09-13 12:52:00,73.9,57.2,29.93,SSW,210,3.0,3.0,56,0.00,,,0.01,Wunderground v.1.15,2013-09-13 16:52:00,
2013-09-13 12:58:00,73.8,56.1,29.94,NW,305,5.0,8.0,54,0.00,,,0.01,Wunderground v.1.15,2013-09-13 16:58:00,
2013-09-13 13:04:00,72.8,55.7,29.94,WNW,295,8.0,12.0,55,0.00,,,0.01,Wunderground v.1.15,2013-09-13 17:04:00,
2013-09-13 13:10:00,73.1,55.5,29.94,SW,235,7.0,12.0,54,0.00,,,0.01,Wunderground v.1.15,2013-09-13 17:10:00,
2013-09-13 13:16:00,73.7,55.5,29.93,NW,321,4.0,12.0,53,0.00,,,0.01,Wunderground v.1.15,2013-09-13 17:16:00,
2013-09-13 13:22:00,74.0,56.8,29.93,WNW,289,4.0,7.0,55,0.00,,,0.01,Wunderground v.1.15,2013-09-13 17:22:00,
2013-09-13 13:28:00,73.3,55.1,29.93,WNW,291,6.0,10.0,53,0.00,,,0.01,Wunderground v.1.15,2013-09-13 17:28:00,
2013-09-13 13:34:00,73.8,56.1,29.93,NW,310,7.0,7.0,54,0.00,,,0.01,Wunderground v.1.15,2013-09-13 17:34:00,
2013-09-13 13:40:00,73.5,55.3,29.93,NW,319,7.0,8.0,53,0.00,,,0.01,Wunderground v.1.15,2013-09-13 17:40:00,
2013-09-13 13:45:00,73.2,55.0,29.93,NW,307,7.0,8.0,53,0.00,,,0.01,Wunderground v.1.15,2013-09-13 17:45:00,
2013-09-13 13:52:00,73.3,55.6,29.93,WSW,243,6.0,7.0,54,0.00,,,0.01,Wunderground v.1.15,2013-09-13 17:52:00,
2013-09-13 13:58:00,74.2,54.9,29.93,WNW,294,5.0,7.0,51,0.00,,,0.01,Wunderground v.1.15,2013-09-13 17:58:00,
2013-09-13 14:04:00,74.7,53.7,29.93,West,266,5.0,6.0,48,0.00,,,0.01,Wunderground v.1.15,2013-09-13 18:04:00,
2013-09-13 14:10:00,74.4,55.6,29.92,West,280,5.0,7.0,52,0.00,,,0.01,Wunderground v.1.15,2013-09-13 18:10:00,
2013-09-13 14:16:00,73.9,55.2,29.92,North,354,6.0,7.0,52,0.00,,,0.01,Wunderground v.1.15,2013-09-13 18:16:00,
2013-09-13 14:22:00,74.3,54.5,29.92,WNW,303,7.0,7.0,50,0.00,,,0.01,Wunderground v.1.15,2013-09-13 18:22:00,
2013-09-13 14:28:00,74.6,54.7,29.92,SW,228,6.0,7.0,50,0.00,,,0.01,Wunderground v.1.15,2013-09-13 18:28:00,
2013-09-13 14:34:00,75.3,56.5,29.92,West,260,5.0,10.0,52,0.00,,,0.01,Wunderground v.1.15,2013-09-13 18:34:00,
2013-09-13 14:40:00,75.4,54.9,29.92,NW,322,5.0,5.0,49,0.00,,,0.01,Wunderground v.1.15,2013-09-13 18:40:00,
2013-09-13 14:46:00,75.5,53.9,29.92,SW,228,4.0,8.0,47,0.00,,,0.01,Wunderground v.1.15,2013-09-13 18:46:00,
2013-09-13 14:52:00,75.6,55.6,29.92,WSW,253,5.0,7.0,50,0.00,,,0.01,Wunderground v.1.15,2013-09-13 18:52:00,
2013-09-13 14:58:00,74.6,53.6,29.91,NW,315,6.0,7.0,48,0.00,,,0.01,Wunderground v.1.15,2013-09-13 18:58:00,
2013-09-13 15:04:00,74.2,53.8,29.91,NW,307,6.0,7.0,49,0.00,,,0.01,Wunderground v.1.15,2013-09-13 19:04:00,
2013-09-13 15:10:00,74.4,54.0,29.91,NW,315,6.0,10.0,49,0.00,,,0.01,Wunderground v.1.15,2013-09-13 19:10:00,
2013-09-13 15:16:00,74.4,55.1,29.91,SW,226,5.0,10.0,51,0.00,,,0.01,Wunderground v.1.15,2013-09-13 19:16:00,
2013-09-13 15:22:00,74.5,54.1,29.91,SW,226,5.0,9.0,49,0.00,,,0.01,Wunderground v.1.15,2013-09-13 19:22:00,
2013-09-13 15:28:00,74.6,54.7,29.91,NW,325,5.0,9.0,50,0.00,,,0.01,Wunderground v.1.15,2013-09-13 19:28:00,
2013-09-13 15:34:00,74.6,53.0,29.91,SW,222,6.0,13.0,47,0.00,,,0.01,Wunderground v.1.15,2013-09-13 19:34:00,
2013-09-13 15:40:00,74.9,54.4,29.91,SW,229,6.0,8.0,49,0.00,,,0.01,Wunderground v.1.15,2013-09-13 19:40:00,
2013-09-13 15:46:00,74.9,54.4,29.91,WSW,252,7.0,12.0,49,0.00,,,0.01,Wunderground v.1.15,2013-09-13 19:46:00,
2013-09-13 15:52:00,74.9,53.9,29.91,NNW,333,7.0,7.0,48,0.00,,,0.01,Wunderground v.1.15,2013-09-13 19:52:00,
2013-09-13 15:58:00,74.9,54.4,29.91,SW,225,8.0,13.0,49,0.00,,,0.01,Wunderground v.1.15,2013-09-13 19:58:00,
2013-09-13 16:04:00,74.5,52.9,29.91,WSW,256,9.0,9.0,47,0.00,,,0.01,Wunderground v.1.15,2013-09-13 20:04:00,
2013-09-13 16:10:00,74.4,54.0,29.91,West,260,9.0,11.0,49,0.00,,,0.01,Wunderground v.1.15,2013-09-13 20:10:00,
2013-09-13 16:16:00,74.4,54.5,29.91,West,276,8.0,11.0,50,0.00,,,0.01,Wunderground v.1.15,2013-09-13 20:16:00,
2013-09-13 16:22:00,74.2,52.7,29.91,NW,322,8.0,9.0,47,0.00,,,0.01,Wunderground v.1.15,2013-09-13 20:22:00,
2013-09-13 16:28:00,74.0,53.1,29.91,NW,310,9.0,13.0,48,0.00,,,0.01,Wunderground v.1.15,2013-09-13 20:28:00,
2013-09-13 16:33:00,74.5,54.1,29.91,SW,232,7.0,13.0,49,0.00,,,0.01,Wunderground v.1.15,2013-09-13 20:33:00,
2013-09-13 16:40:00,74.3,52.8,29.91,NW,307,7.0,7.0,47,0.00,,,0.01,Wunderground v.1.15,2013-09-13 20:40:00,
2013-09-13 16:46:00,74.1,53.2,29.91,WNW,302,7.0,9.0,48,0.00,,,0.01,Wunderground v.1.15,2013-09-13 20:46:00,
2013-09-13 16:52:00,73.9,54.1,29.91,West,264,8.0,12.0,50,0.00,,,0.01,Wunderground v.1.15,2013-09-13 20:52:00,
2013-09-13 16:57:00,73.7,54.4,29.91,WSW,257,8.0,12.0,51,0.00,,,0.01,Wunderground v.1.15,2013-09-13 20:57:00,
2013-09-13 17:04:00,73.7,53.3,29.92,WSW,257,8.0,9.0,49,0.00,,,0.01,Wunderground v.1.15,2013-09-13 21:04:00,
2013-09-13 17:10:00,73.6,53.3,29.92,NW,325,7.0,7.0,49,0.00,,,0.01,Wunderground v.1.15,2013-09-13 21:10:00,
2013-09-13 17:16:00,73.4,53.1,29.92,SW,226,8.0,12.0,49,0.00,,,0.01,Wunderground v.1.15,2013-09-13 21:16:00,
2013-09-13 17:22:00,73.4,53.6,29.92,WSW,250,7.0,7.0,50,0.00,,,0.01,Wunderground v.1.15,2013-09-13 21:22:00,
2013-09-13 17:28:00,73.1,52.8,29.92,West,278,8.0,8.0,49,0.00,,,0.01,Wunderground v.1.15,2013-09-13 21:28:00,
2013-09-13 17:33:00,72.9,52.6,29.92,West,264,9.0,15.0,49,0.00,,,0.01,Wunderground v.1.15,2013-09-13 21:33:00,
2013-09-13 17:40:00,72.9,53.2,29.92,NW,304,7.0,7.0,50,0.00,,,0.01,Wunderground v.1.15,2013-09-13 21:40:00,
2013-09-13 17:46:00,72.8,53.6,29.92,WSW,250,6.0,8.0,51,0.00,,,0.01,Wunderground v.1.15,2013-09-13 21:46:00,
2013-09-13 17:52:00,72.9,53.7,29.92,West,280,5.0,7.0,51,0.00,,,0.01,Wunderground v.1.15,2013-09-13 21:52:00,
2013-09-13 17:58:00,72.6,52.3,29.92,NNW,330,6.0,7.0,49,0.00,,,0.01,Wunderground v.1.15,2013-09-13 21:58:00,
2013-09-13 18:04:00,72.4,52.2,29.92,NNW,328,8.0,10.0,49,0.00,,,0.01,Wunderground v.1.15,2013-09-13 22:04:00,
2013-09-13 18:10:00,72.2,52.5,29.93,WSW,245,7.0,9.0,50,0.00,,,0.01,Wunderground v.1.15,2013-09-13 22:10:00,
2013-09-13 18:16:00,71.9,52.2,29.92,WSW,240,7.0,11.0,50,0.00,,,0.01,Wunderground v.1.15,2013-09-13 22:16:00,
2013-09-13 18:22:00,71.8,51.6,29.92,SW,232,7.0,11.0,49,0.00,,,0.01,Wunderground v.1.15,2013-09-13 22:22:00,
2013-09-13 18:28:00,71.6,52.5,29.93,WNW,298,7.0,11.0,51,0.00,,,0.01,Wunderground v.1.15,2013-09-13 22:28:00,
2013-09-13 18:34:00,71.5,51.9,29.93,West,274,5.0,7.0,50,0.00,,,0.01,Wunderground v.1.15,2013-09-13 22:34:00,
2013-09-13 18:40:00,71.2,51.6,29.93,NW,322,6.0,6.0,50,0.00,,,0.01,Wunderground v.1.15,2013-09-13 22:40:00,
2013-09-13 18:46:00,71.0,52.0,29.93,West,280,6.0,7.0,51,0.00,,,0.01,Wunderground v.1.15,2013-09-13 22:46:00,
2013-09-13 18:52:00,70.7,51.7,29.93,WNW,293,7.0,7.0,51,0.00,,,0.01,Wunderground v.1.15,2013-09-13 22:52:00,
2013-09-13 18:58:00,70.5,51.5,29.93,WNW,302,5.0,7.0,51,0.00,,,0.01,Wunderground v.1.15,2013-09-13 22:58:00,
2013-09-13 19:04:00,70.3,51.3,29.93,NNW,335,6.0,9.0,51,0.00,,,0.01,Wunderground v.1.15,2013-09-13 23:04:00,
2013-09-13 19:10:00,70.0,51.6,29.93,WNW,287,6.0,9.0,52,0.00,,,0.01,Wunderground v.1.15,2013-09-13 23:10:00,
2013-09-13 19:16:00,69.6,51.7,29.93,NNW,332,5.0,9.0,53,0.00,,,0.01,Wunderground v.1.15,2013-09-13 23:16:00,
2013-09-13 19:22:00,69.2,51.8,29.93,West,272,4.0,5.0,54,0.00,,,0.01,Wunderground v.1.15,2013-09-13 23:22:00,
2013-09-13 19:28:00,68.7,51.9,29.93,West,263,3.0,5.0,55,0.00,,,0.01,Wunderground v.1.15,2013-09-13 23:28:00,
2013-09-13 19:34:00,67.8,51.5,29.93,West,264,4.0,9.0,56,0.00,,,0.01,Wunderground v.1.15,2013-09-13 23:34:00,
2013-09-13 19:40:00,67.3,51.5,29.93,WNW,291,5.0,5.0,57,0.00,,,0.01,Wunderground v.1.15,2013-09-13 23:40:00,
2013-09-13 19:46:00,66.7,51.5,29.94,SW,228,4.0,5.0,58,0.00,,,0.01,Wunderground v.1.15,2013-09-13 23:46:00,
2013-09-13 19:52:00,66.4,51.6,29.94,WSW,249,4.0,5.0,59,0.00,,,0.01,Wunderground v.1.15,2013-09-13 23:52:00,
2013-09-13 19:58:00,66.0,51.3,29.94,West,271,3.0,7.0,59,0.00,,,0.01,Wunderground v.1.15,2013-09-13 23:58:00,
2013-09-13 20:04:00,65.8,51.1,29.94,NW,312,4.0,5.0,59,0.00,,,0.01,Wunderground v.1.15,2013-09-14 00:04:00,
2013-09-13 20:10:00,65.5,51.7,29.94,WSW,247,3.0,3.0,61,0.00,,,0.01,Wunderground v.1.15,2013-09-14 00:10:00,
2013-09-13 20:16:00,65.1,51.8,29.95,West,259,3.0,9.0,62,0.00,,,0.01,Wunderground v.1.15,2013-09-14 00:16:00,
2013-09-13 20:22:00,65.0,51.2,29.95,West,266,4.0,4.0,61,0.00,,,0.01,Wunderground v.1.15,2013-09-14 00:22:00,
2013-09-13 20:28:00,64.9,51.6,29.95,West,274,3.0,6.0,62,0.00,,,0.01,Wunderground v.1.15,2013-09-14 00:28:00,
2013-09-13 20:34:00,64.7,51.4,29.95,WSW,243,3.0,3.0,62,0.00,,,0.01,Wunderground v.1.15,2013-09-14 00:34:00,
2013-09-13 20:40:00,64.6,51.3,29.95,WNW,298,4.0,4.0,62,0.00,,,0.01,Wunderground v.1.15,2013-09-14 00:40:00,
2013-09-13 20:46:00,64.4,51.5,29.95,West,277,4.0,7.0,63,0.00,,,0.01,Wunderground v.1.15,2013-09-14 00:46:00,
2013-09-13 20:52:00,64.4,51.5,29.96,WNW,287,4.0,4.0,63,0.00,,,0.01,Wunderground v.1.15,2013-09-14 00:52:00,
2013-09-13 20:58:00,64.3,51.4,29.96,WSW,254,4.0,4.0,63,0.00,,,0.01,Wunderground v.1.15,2013-09-14 00:58:00,
2013-09-13 21:06:00,64.2,51.3,29.97,NW,309,5.0,6.0,63,0.00,,,0.01,Wunderground v.1.15,2013-09-14 01:06:00,
2013-09-13 21:12:00,64.1,51.2,29.97,NW,319,5.0,12.0,63,0.00,,,0.01,Wunderground v.1.15,2013-09-14 01:12:00,
2013-09-13 21:18:00,64.2,50.9,29.97,WNW,294,7.0,12.0,62,0.00,,,0.01,Wunderground v.1.15,2013-09-14 01:18:00,
2013-09-13 21:24:00,64.0,51.1,29.97,West,262,5.0,7.0,63,0.00,,,0.01,Wunderground v.1.15,2013-09-14 01:24:00,
2013-09-13 21:30:00,63.8,51.0,29.98,West,260,4.0,4.0,63,0.00,,,0.01,Wunderground v.1.15,2013-09-14 01:30:00,
2013-09-13 21:36:00,63.6,50.8,29.98,WNW,298,3.0,4.0,63,0.00,,,0.01,Wunderground v.1.15,2013-09-14 01:36:00,
2013-09-13 21:42:00,63.5,50.7,29.98,WNW,298,3.0,3.0,63,0.00,,,0.01,Wunderground v.1.15,2013-09-14 01:42:00,
2013-09-13 21:48:00,63.4,51.0,29.98,NNW,333,4.0,5.0,64,0.00,,,0.01,Wunderground v.1.15,2013-09-14 01:48:00,
2013-09-13 21:54:00,63.3,50.9,29.98,NW,315,3.0,4.0,64,0.00,,,0.01,Wunderground v.1.15,2013-09-14 01:54:00,
2013-09-13 22:00:00,63.1,51.1,29.98,NW,319,3.0,3.0,65,0.00,,,0.01,Wunderground v.1.15,2013-09-14 02:00:00,
2013-09-13 22:06:00,62.9,51.0,29.98,NW,324,3.0,4.0,65,0.00,,,0.01,Wunderground v.1.15,2013-09-14 02:06:00,
2013-09-13 22:12:00,62.6,51.1,29.99,West,280,2.0,3.0,66,0.00,,,0.01,Wunderground v.1.15,2013-09-14 02:12:00,
2013-09-13 22:18:00,62.3,50.8,29.99,WNW,297,1.0,3.0,66,0.00,,,0.01,Wunderground v.1.15,2013-09-14 02:18:00,
2013-09-13 22:24:00,62.0,50.9,29.99,West,262,1.0,3.0,67,0.00,,,0.01,Wunderground v.1.15,2013-09-14 02:24:00,
2013-09-13 22:30:00,61.4,50.7,29.99,SW,236,1.0,3.0,68,0.00,,,0.01,Wunderground v.1.15,2013-09-14 02:30:00,
2013-09-13 22:36:00,61.3,51.8,29.99,NW,304,1.0,3.0,71,0.00,,,0.01,Wunderground v.1.15,2013-09-14 02:36:00,
2013-09-13 22:42:00,61.3,51.0,29.99,NW,326,3.0,4.0,69,0.00,,,0.01,Wunderground v.1.15,2013-09-14 02:42:00,
2013-09-13 22:48:00,61.4,51.5,30.00,WNW,292,3.0,4.0,70,0.00,,,0.01,Wunderground v.1.15,2013-09-14 02:48:00,
2013-09-13 22:54:00,61.3,50.6,30.00,NW,307,3.0,5.0,68,0.00,,,0.01,Wunderground v.1.15,2013-09-14 02:54:00,
2013-09-13 23:00:00,60.9,51.0,30.00,West,281,2.0,2.0,70,0.00,,,0.01,Wunderground v.1.15,2013-09-14 03:00:00,
2013-09-13 23:06:00,60.8,51.0,30.00,NW,321,2.0,3.0,70,0.00,,,0.01,Wunderground v.1.15,2013-09-14 03:06:00,
2013-09-13 23:12:00,60.7,51.6,30.00,NW,315,2.0,4.0,72,0.00,,,0.01,Wunderground v.1.15,2013-09-14 03:12:00,
2013-09-13 23:18:00,60.7,50.9,30.00,WNW,302,3.0,4.0,70,0.00,,,0.01,Wunderground v.1.15,2013-09-14 03:18:00,
2013-09-13 23:24:00,60.4,51.0,30.00,NW,321,2.0,3.0,71,0.00,,,0.01,Wunderground v.1.15,2013-09-14 03:24:00,
2013-09-13 23:30:00,60.4,51.0,30.00,WNW,299,2.0,3.0,71,0.00,,,0.01,Wunderground v.1.15,2013-09-14 03:30:00,
2013-09-13 23:36:00,60.2,50.8,30.00,West,263,2.0,3.0,71,0.00,,,0.01,Wunderground v.1.15,2013-09-14 03:36:00,
2013-09-13 23:42:00,60.0,50.9,30.00,West,274,2.0,3.0,72,0.00,,,0.01,Wunderground v.1.15,2013-09-14 03:42:00,
2013-09-13 23:48:00,59.6,50.6,30.00,WSW,252,2.0,3.0,72,0.00,,,0.01,Wunderground v.1.15,2013-09-14 03:48:00,
2013-09-13 23:54:00,59.3,50.6,30.00,West,277,2.0,3.0,73,0.00,,,0.01,Wunderground v.1.15,2013-09-14 03:54:00,